Mathilde Maersk — OUJS2 — position and weather

sailwx.info

Track history (hours):
 
Tides and Currents Weather Stations Pressure Air Temp Water Temp Dewpoint Dewpoint Depression Visibility Wind Speed Wind Dir Waves Ship Positions

Mathilde Maersk

Last reported at 2016-Jul-21 04:33 UTC. Time now 2016-Jul-26 12:12 UTC.
Position N 38°15' W 124°26'.

Length 367 m; draft 12.2 m.

Type: Ship (hazmat cat B). MMSI: 220597990.

Date/timePositionNaut miles runAvg speedWind from/ knotsBaromVisibWave heightAir tempDewpointWater temp
2016-Jul-21 04:33N 38°15' W 124°26'1313.3
2016-Jul-21 03:33N 38°14' W 124°09'1313.3
2016-Jul-21 02:33N 38°12' W 123°52'1313.0
2016-Jul-21 01:34N 38°11' W 123°36'1212.4
2016-Jul-21 00:33N 38°09' W 123°20'1312.7
2016-Jul-20 23:34N 37°59' W 123°09'1312.8
2016-Jul-20 22:33N 37°53' W 122°55'1312.6
2016-Jul-20 21:34N 37°46' W 122°42'1313.3
2016-Jul-20 20:34N 37°51' W 122°26'6 6.1
2016-Jul-20 19:33N 37°48' W 122°19'0 0.0
2016-Jul-20 18:31N 37°48' W 122°19'0 0.0
2016-Jul-20 17:31N 37°48' W 122°19'0 0.0
2016-Jul-20 16:31N 37°48' W 122°19'0 0.0
2016-Jul-20 15:31N 37°48' W 122°19'0 0.0
2016-Jul-20 14:31N 37°48' W 122°19'0 0.0
2016-Jul-20 13:31N 37°48' W 122°19'0 0.0
2016-Jul-20 12:31N 37°48' W 122°19'0 0.0
2016-Jul-20 11:31N 37°48' W 122°19'0 0.0
2016-Jul-20 10:31N 37°48' W 122°19'0 0.0
2016-Jul-20 09:31N 37°48' W 122°19'0 0.0
2016-Jul-20 08:31N 37°48' W 122°19'0 0.0
2016-Jul-20 07:31N 37°48' W 122°19'0 0.0
2016-Jul-20 06:28N 37°48' W 122°19'0 0.0
2016-Jul-20 05:31N 37°48' W 122°19'0 0.0
2016-Jul-20 04:31N 37°48' W 122°19'0 0.0
2016-Jul-20 03:31N 37°48' W 122°19'0 0.0
2016-Jul-20 02:31N 37°48' W 122°19'0 0.0
2016-Jul-20 01:31N 37°48' W 122°19'0 0.0
2016-Jul-20 00:28N 37°48' W 122°19'0 0.0
2016-Jul-19 23:31N 37°48' W 122°19'0 0.4
2016-Jul-19 22:33N 37°48' W 122°19'1 0.5
2016-Jul-19 21:34N 37°48' W 122°19'1010.2
2016-Jul-19 20:33N 37°47' W 122°32'9 8.6
2016-Jul-19 19:33N 37°41' W 122°40'9 9.4
2016-Jul-19 18:33N 37°32' W 122°40'1313.5
2016-Jul-19 17:33N 37°18' W 122°40'2221.9
2016-Jul-19 16:34N 36°57' W 122°33'2322.6
2016-Jul-19 15:33N 36°36' W 122°22'2323.4
2016-Jul-19 14:33N 36°15' W 122°10'2322.9
2016-Jul-19 13:33N 35°55' W 121°56'2322.7
2016-Jul-19 12:33N 35°35' W 121°42'2323.2
2016-Jul-19 11:34N 35°16' W 121°27'2323.2
2016-Jul-19 10:33N 34°56' W 121°13'2423.6
2016-Jul-19 09:32N 34°35' W 120°58'2222.7
2016-Jul-19 08:33N 34°22' W 120°36'2424.4
2016-Jul-19 07:33N 34°16' W 120°07'7023.5
2016-Jul-19 04:34N 33°51' W 118°48'2222.4
2016-Jul-19 03:33N 33°40' W 118°24'1110.8
2016-Jul-19 02:33N 33°41' W 118°12'5 4.7
2016-Jul-19 01:33N 33°45' W 118°14'0 0.1
2016-Jul-19 00:33N 33°45' W 118°14'0 0.0
2016-Jul-18 23:16N 33°45' W 118°14'0 0.0
2016-Jul-18 22:28N 33°45' W 118°14'0 0.0
2016-Jul-18 21:22N 33°45' W 118°14'0 0.0
2016-Jul-18 20:25N 33°45' W 118°14'0 0.0
2016-Jul-18 19:31N 33°45' W 118°14'0 0.0
2016-Jul-18 15:22N 33°45' W 118°14'0 0.0
2016-Jul-18 13:22N 33°45' W 118°14'0 0.0
2016-Jul-18 10:10N 33°45' W 118°14'0 0.0
2016-Jul-18 09:10N 33°45' W 118°14'0 0.0
2016-Jul-18 08:22N 33°45' W 118°14'0 0.0
2016-Jul-18 01:16N 33°45' W 118°14'0 0.0
2016-Jul-17 12:16N 33°45' W 118°14'0 0.0
2016-Jul-17 11:22N 33°45' W 118°14'0 0.0
2016-Jul-17 10:10N 33°45' W 118°14'0 0.0
2016-Jul-17 09:28N 33°45' W 118°14'0 0.0
2016-Jul-17 02:10N 33°45' W 118°14'0 0.0
2016-Jul-17 00:28N 33°45' W 118°14'0 0.0
2016-Jul-16 18:22N 33°45' W 118°14'0 0.0
2016-Jul-16 10:10N 33°45' W 118°14'0 0.0
2016-Jul-16 09:28N 33°45' W 118°14'0 0.0
2016-Jul-16 08:28N 33°45' W 118°14'0 0.0
2016-Jul-16 06:28N 33°45' W 118°14'0 0.0
2016-Jul-16 03:16N 33°45' W 118°14'0 0.0
2016-Jul-16 02:16N 33°45' W 118°14'0 0.0
2016-Jul-16 01:22N 33°45' W 118°14'0 0.0
2016-Jul-15 23:28N 33°45' W 118°14'0 0.0
2016-Jul-15 22:16N 33°45' W 118°14'0 0.0
2016-Jul-15 21:16N 33°45' W 118°14'0 0.0
2016-Jul-15 20:10N 33°45' W 118°14'0 0.0
2016-Jul-15 16:28N 33°45' W 118°14'0 0.0
2016-Jul-15 11:28N 33°45' W 118°14'0 0.0
2016-Jul-15 10:22N 33°45' W 118°14'0 0.0
2016-Jul-15 09:28N 33°45' W 118°14'0 0.0
2016-Jul-15 08:04N 33°45' W 118°14'0 0.0
2016-Jul-15 07:31N 33°45' W 118°14'0 0.0
2016-Jul-15 06:04N 33°45' W 118°14'0 0.0
2016-Jul-15 04:10N 33°45' W 118°14'0 0.0
2016-Jul-15 03:28N 33°45' W 118°14'0 0.0
2016-Jul-15 02:28N 33°45' W 118°14'0 0.0
2016-Jul-15 00:22N 33°45' W 118°14'0 0.0
2016-Jul-14 23:28N 33°45' W 118°14'0 0.0
2016-Jul-14 22:10N 33°45' W 118°14'0 0.0
2016-Jul-14 21:28N 33°45' W 118°14'0 0.0
2016-Jul-14 20:28N 33°45' W 118°14'0 0.0
2016-Jul-14 19:28N 33°45' W 118°14'0 0.0
2016-Jul-14 18:16N 33°45' W 118°14'0 0.0
2016-Jul-14 15:16N 33°45' W 118°14'0 0.0
2016-Jul-14 12:16N 33°45' W 118°14'0 0.0
2016-Jul-14 11:19N 33°45' W 118°14'1 1.2
2016-Jul-14 10:28N 33°45' W 118°13'6 7.0
2016-Jul-14 09:33N 33°39' W 118°11'8 8.3
2016-Jul-14 08:33N 33°36' W 118°21'10 9.7
2016-Jul-14 07:33N 33°41' W 118°31'10 9.7
2016-Jul-14 06:33N 33°46' W 118°41'10 9.6
2016-Jul-14 05:33N 33°51' W 118°51'10 9.6
2016-Jul-14 04:33N 33°55' W 119°01'10 9.6
2016-Jul-14 03:33N 33°60' W 119°11'10 9.6
2016-Jul-14 02:33N 34°04' W 119°22'1010.0
2016-Jul-14 01:33N 34°06' W 119°34'10 9.8
2016-Jul-14 00:33N 34°09' W 119°45'1010.3
2016-Jul-13 23:33N 34°12' W 119°57'1010.4
2016-Jul-13 22:33N 34°14' W 120°09'1210.4
2016-Jul-13 21:24N 34°18' W 120°23'910.0
2016-Jul-13 20:33N 34°20' W 120°33'1310.2
2016-Jul-13 19:17N 34°23' W 120°48'810.8
2016-Jul-13 18:32N 34°25' W 120°58'2110.6
2016-Jul-13 16:30N 34°27' W 121°24'1010.8
2016-Jul-13 15:33N 34°27' W 121°36'1414.1
2016-Jul-13 14:33N 34°27' W 121°53'1919.2
2016-Jul-13 13:33N 34°27' W 122°16'2819.5
2016-Jul-13 12:08N 34°27' W 122°50'1219.3
2016-Jul-13 11:32N 34°26' W 123°04'3819.0
2016-Jul-13 09:33N 34°25' W 123°50'2219.2
2016-Jul-13 08:24N 34°25' W 124°17'3618.9
2016-Jul-13 06:29N 34°25' W 125°00'  
Track history (hours):
 
Tides and Currents Weather Stations Pressure Air Temp Water Temp Dewpoint Dewpoint Depression Visibility Wind Speed Wind Dir Waves Ship Positions

Mathilde Maersk

Last reported at 2016-Jul-21 04:33 UTC. Time now 2016-Jul-26 12:12 UTC.
Position N 38°15' W 124°26'.

Length 367 m; draft 12.2 m.

Type: Ship (hazmat cat B). MMSI: 220597990.

Date/timePositionNaut miles runAvg speedWind from/ knotsBaromVisibWave heightAir tempDewpointWater temp
2016-Jul-21 04:33N 38°15' W 124°26'1313.3
2016-Jul-21 03:33N 38°14' W 124°09'1313.3
2016-Jul-21 02:33N 38°12' W 123°52'1313.0
2016-Jul-21 01:34N 38°11' W 123°36'1212.4
2016-Jul-21 00:33N 38°09' W 123°20'1312.7
2016-Jul-20 23:34N 37°59' W 123°09'1312.8
2016-Jul-20 22:33N 37°53' W 122°55'1312.6
2016-Jul-20 21:34N 37°46' W 122°42'1313.3
2016-Jul-20 20:34N 37°51' W 122°26'6 6.1
2016-Jul-20 19:33N 37°48' W 122°19'0 0.0
2016-Jul-20 18:31N 37°48' W 122°19'0 0.0
2016-Jul-20 17:31N 37°48' W 122°19'0 0.0
2016-Jul-20 16:31N 37°48' W 122°19'0 0.0
2016-Jul-20 15:31N 37°48' W 122°19'0 0.0
2016-Jul-20 14:31N 37°48' W 122°19'0 0.0
2016-Jul-20 13:31N 37°48' W 122°19'0 0.0
2016-Jul-20 12:31N 37°48' W 122°19'0 0.0
2016-Jul-20 11:31N 37°48' W 122°19'0 0.0
2016-Jul-20 10:31N 37°48' W 122°19'0 0.0
2016-Jul-20 09:31N 37°48' W 122°19'0 0.0
2016-Jul-20 08:31N 37°48' W 122°19'0 0.0
2016-Jul-20 07:31N 37°48' W 122°19'0 0.0
2016-Jul-20 06:28N 37°48' W 122°19'0 0.0
2016-Jul-20 05:31N 37°48' W 122°19'0 0.0
2016-Jul-20 04:31N 37°48' W 122°19'0 0.0
2016-Jul-20 03:31N 37°48' W 122°19'0 0.0
2016-Jul-20 02:31N 37°48' W 122°19'0 0.0
2016-Jul-20 01:31N 37°48' W 122°19'0 0.0
2016-Jul-20 00:28N 37°48' W 122°19'0 0.0
2016-Jul-19 23:31N 37°48' W 122°19'0 0.4
2016-Jul-19 22:33N 37°48' W 122°19'1 0.5
2016-Jul-19 21:34N 37°48' W 122°19'1010.2
2016-Jul-19 20:33N 37°47' W 122°32'9 8.6
2016-Jul-19 19:33N 37°41' W 122°40'9 9.4
2016-Jul-19 18:33N 37°32' W 122°40'1313.5
2016-Jul-19 17:33N 37°18' W 122°40'2221.9
2016-Jul-19 16:34N 36°57' W 122°33'2322.6
2016-Jul-19 15:33N 36°36' W 122°22'2323.4
2016-Jul-19 14:33N 36°15' W 122°10'2322.9
2016-Jul-19 13:33N 35°55' W 121°56'2322.7
2016-Jul-19 12:33N 35°35' W 121°42'2323.2
2016-Jul-19 11:34N 35°16' W 121°27'2323.2
2016-Jul-19 10:33N 34°56' W 121°13'2423.6
2016-Jul-19 09:32N 34°35' W 120°58'2222.7
2016-Jul-19 08:33N 34°22' W 120°36'2424.4
2016-Jul-19 07:33N 34°16' W 120°07'7023.5
2016-Jul-19 04:34N 33°51' W 118°48'2222.4
2016-Jul-19 03:33N 33°40' W 118°24'1110.8
2016-Jul-19 02:33N 33°41' W 118°12'5 4.7
2016-Jul-19 01:33N 33°45' W 118°14'0 0.1
2016-Jul-19 00:33N 33°45' W 118°14'0 0.0
2016-Jul-18 23:16N 33°45' W 118°14'0 0.0
2016-Jul-18 22:28N 33°45' W 118°14'0 0.0
2016-Jul-18 21:22N 33°45' W 118°14'0 0.0
2016-Jul-18 20:25N 33°45' W 118°14'0 0.0
2016-Jul-18 19:31N 33°45' W 118°14'0 0.0
2016-Jul-18 15:22N 33°45' W 118°14'0 0.0
2016-Jul-18 13:22N 33°45' W 118°14'0 0.0
2016-Jul-18 10:10N 33°45' W 118°14'0 0.0
2016-Jul-18 09:10N 33°45' W 118°14'0 0.0
2016-Jul-18 08:22N 33°45' W 118°14'0 0.0
2016-Jul-18 01:16N 33°45' W 118°14'0 0.0
2016-Jul-17 12:16N 33°45' W 118°14'0 0.0
2016-Jul-17 11:22N 33°45' W 118°14'0 0.0
2016-Jul-17 10:10N 33°45' W 118°14'0 0.0
2016-Jul-17 09:28N 33°45' W 118°14'0 0.0
2016-Jul-17 02:10N 33°45' W 118°14'0 0.0
2016-Jul-17 00:28N 33°45' W 118°14'0 0.0
2016-Jul-16 18:22N 33°45' W 118°14'0 0.0
2016-Jul-16 10:10N 33°45' W 118°14'0 0.0
2016-Jul-16 09:28N 33°45' W 118°14'0 0.0
2016-Jul-16 08:28N 33°45' W 118°14'0 0.0
2016-Jul-16 06:28N 33°45' W 118°14'0 0.0
2016-Jul-16 03:16N 33°45' W 118°14'0 0.0
2016-Jul-16 02:16N 33°45' W 118°14'0 0.0
2016-Jul-16 01:22N 33°45' W 118°14'0 0.0
2016-Jul-15 23:28N 33°45' W 118°14'0 0.0
2016-Jul-15 22:16N 33°45' W 118°14'0 0.0
2016-Jul-15 21:16N 33°45' W 118°14'0 0.0
2016-Jul-15 20:10N 33°45' W 118°14'0 0.0
2016-Jul-15 16:28N 33°45' W 118°14'0 0.0
2016-Jul-15 11:28N 33°45' W 118°14'0 0.0
2016-Jul-15 10:22N 33°45' W 118°14'0 0.0
2016-Jul-15 09:28N 33°45' W 118°14'0 0.0
2016-Jul-15 08:04N 33°45' W 118°14'0 0.0
2016-Jul-15 07:31N 33°45' W 118°14'0 0.0
2016-Jul-15 06:04N 33°45' W 118°14'0 0.0
2016-Jul-15 04:10N 33°45' W 118°14'0 0.0
2016-Jul-15 03:28N 33°45' W 118°14'0 0.0
2016-Jul-15 02:28N 33°45' W 118°14'0 0.0
2016-Jul-15 00:22N 33°45' W 118°14'0 0.0
2016-Jul-14 23:28N 33°45' W 118°14'0 0.0
2016-Jul-14 22:10N 33°45' W 118°14'0 0.0
2016-Jul-14 21:28N 33°45' W 118°14'0 0.0
2016-Jul-14 20:28N 33°45' W 118°14'0 0.0
2016-Jul-14 19:28N 33°45' W 118°14'0 0.0
2016-Jul-14 18:16N 33°45' W 118°14'0 0.0
2016-Jul-14 15:16N 33°45' W 118°14'0 0.0
2016-Jul-14 12:16N 33°45' W 118°14'0 0.0
2016-Jul-14 11:19N 33°45' W 118°14'1 1.2
2016-Jul-14 10:28N 33°45' W 118°13'6 7.0
2016-Jul-14 09:33N 33°39' W 118°11'8 8.3
2016-Jul-14 08:33N 33°36' W 118°21'10 9.7
2016-Jul-14 07:33N 33°41' W 118°31'10 9.7
2016-Jul-14 06:33N 33°46' W 118°41'10 9.6
2016-Jul-14 05:33N 33°51' W 118°51'10 9.6
2016-Jul-14 04:33N 33°55' W 119°01'10 9.6
2016-Jul-14 03:33N 33°60' W 119°11'10 9.6
2016-Jul-14 02:33N 34°04' W 119°22'1010.0
2016-Jul-14 01:33N 34°06' W 119°34'10 9.8
2016-Jul-14 00:33N 34°09' W 119°45'1010.3
2016-Jul-13 23:33N 34°12' W 119°57'1010.4
2016-Jul-13 22:33N 34°14' W 120°09'1210.4
2016-Jul-13 21:24N 34°18' W 120°23'910.0
2016-Jul-13 20:33N 34°20' W 120°33'1310.2
2016-Jul-13 19:17N 34°23' W 120°48'810.8
2016-Jul-13 18:32N 34°25' W 120°58'2110.6
2016-Jul-13 16:30N 34°27' W 121°24'1010.8
2016-Jul-13 15:33N 34°27' W 121°36'1414.1
2016-Jul-13 14:33N 34°27' W 121°53'1919.2
2016-Jul-13 13:33N 34°27' W 122°16'2819.5
2016-Jul-13 12:08N 34°27' W 122°50'1219.3
2016-Jul-13 11:32N 34°26' W 123°04'3819.0
2016-Jul-13 09:33N 34°25' W 123°50'2219.2
2016-Jul-13 08:24N 34°25' W 124°17'3618.9
2016-Jul-13 06:29N 34°25' W 125°00'  

Dump ship's entire track history